Time;durP1;ratioP1;P1;durP2;ratioP2;P2;SDS_P1;SDS_P2;PMS_P1;PMS_P2;Temp;Humidity;BMP_temperature;BMP_pressure;BME280_temperature;BME280_humidity;BME280_pressure;Samples;Min_cycle;Max_cycle;Signal;HPM_P1;HPM_P2
2022/05/16 00:01:54;;;;;;;5.03;4.00;;;;;;;20.51;56.24;99154.59;5054223;28;20487;-86
2022/05/16 00:04:20;;;;;;;4.80;4.30;;;;;;;20.59;57.38;99141.84;5053976;28;20439;-86
2022/05/16 00:06:47;;;;;;;4.60;4.20;;;;;;;20.61;57.98;99145.28;5065095;28;20467;-85
2022/05/16 00:09:14;;;;;;;5.40;4.43;;;;;;;20.65;59.27;99150.44;5073665;28;20445;-85
2022/05/16 00:11:40;;;;;;;7.77;5.07;;;;;;;20.61;61.75;99153.47;5074148;28;20449;-86
2022/05/16 00:14:07;;;;;;;7.23;5.90;;;;;;;20.56;62.26;99157.72;5074667;28;20447;-86
2022/05/16 00:16:35;;;;;;;5.43;4.90;;;;;;;20.61;61.59;99158.94;5074521;28;20422;-86
2022/05/16 00:19:02;;;;;;;6.03;4.40;;;;;;;20.49;61.40;99157.50;5073527;28;20438;-86
2022/05/16 00:21:29;;;;;;;5.27;4.53;;;;;;;20.50;60.91;99153.72;5071223;28;20474;-87
2022/05/16 00:23:55;;;;;;;4.67;4.33;;;;;;;20.58;60.57;99152.97;5073516;28;20453;-85
2022/05/16 00:26:22;;;;;;;6.63;4.37;;;;;;;20.57;60.05;99154.81;5073576;28;20944;-86
2022/05/16 00:28:49;;;;;;;5.13;4.53;;;;;;;20.63;60.13;99149.75;5072285;28;20446;-87
2022/05/16 00:31:15;;;;;;;4.70;4.20;;;;;;;20.66;60.32;99149.41;5073292;28;20917;-86
2022/05/16 00:33:43;;;;;;;4.73;4.33;;;;;;;20.55;60.76;99147.78;5072965;28;20918;-86
2022/05/16 00:36:10;;;;;;;7.77;4.50;;;;;;;20.60;60.61;99146.31;5057863;28;20438;-87
2022/05/16 00:38:36;;;;;;;6.93;4.83;;;;;;;20.74;60.41;99147.56;5053544;28;20428;-86
2022/05/16 00:41:05;;;;;;;8.17;4.53;;;;;;;20.80;60.28;99148.75;5064796;28;20530;-85
2022/05/16 00:43:48;;;;;;;5.87;4.40;;;;;;;20.76;60.32;99151.00;5073355;28;20744;-85
2022/05/16 00:46:17;;;;;;;4.30;3.90;;;;;;;20.66;60.60;99152.97;5073365;28;20963;-86
2022/05/16 00:48:45;;;;;;;14.73;6.53;;;;;;;20.75;73.77;99214.91;5073146;28;20434;-85
2022/05/16 00:51:16;;;;;;;16.93;8.10;;;;;;;19.89;100.00;99136.47;5067963;28;20482;-88
2022/05/16 00:53:44;;;;;;;10.80;6.73;;;;;;;19.51;100.00;99143.97;5053806;28;20848;-86
2022/05/16 00:56:11;;;;;;;8.03;6.20;;;;;;;19.22;100.00;99141.53;5053061;28;20446;-85
2022/05/16 00:58:40;;;;;;;11.77;6.97;;;;;;;19.29;100.00;99139.88;5053411;28;20428;-86
2022/05/16 01:04:47;;;;;;;11.20;6.10;;;;;;;18.94;100.00;99130.66;5052818;28;20443;-86
2022/05/16 01:06:40;;;;;;;12.93;6.30;;;;;;;18.29;100.00;99133.44;5054432;28;20612;-86
2022/05/16 01:09:07;;;;;;;12.23;6.65;;;;;;;18.10;100.00;99136.22;5053417;28;20798;-87
2022/05/16 01:11:34;;;;;;;14.02;6.95;;;;;;;18.15;100.00;99136.63;5053560;28;20192;-88
2022/05/16 01:14:01;;;;;;;11.35;5.95;;;;;;;18.74;100.00;99151.69;5053082;28;20207;-87
2022/05/16 01:16:28;;;;;;;8.38;6.75;;;;;;;18.92;100.00;99143.59;5053673;28;20190;-88
2022/05/16 01:18:56;;;;;;;14.73;6.55;;;;;;;18.81;100.00;99149.25;5052547;28;20223;-88
2022/05/16 01:21:32;;;;;;;8.85;6.43;;;;;;;18.80;100.00;99144.81;5060426;28;20200;-87
2022/05/16 01:24:03;;;;;;;8.48;6.07;;;;;;;18.67;100.00;99142.41;5072990;28;20187;-87
2022/05/16 01:26:30;;;;;;;10.48;6.97;;;;;;;18.46;100.00;99139.94;5064571;28;20576;-87
2022/05/16 01:28:58;;;;;;;9.10;6.07;;;;;;;18.27;100.00;99127.28;5072975;28;20611;-87
2022/05/16 01:31:24;;;;;;;14.60;7.57;;;;;;;17.61;100.00;99130.00;5054737;28;20560;-86
2022/05/16 01:33:52;;;;;;;11.73;7.30;;;;;;;17.59;100.00;99140.16;5052636;28;20214;-85
2022/05/16 01:36:19;;;;;;;15.30;6.35;;;;;;;17.80;100.00;99143.59;5052618;28;20614;-85
2022/05/16 01:38:45;;;;;;;15.50;7.15;;;;;;;18.02;100.00;99139.69;5069576;28;20200;-86
2022/05/16 01:41:15;;;;;;;17.00;6.93;;;;;;;18.17;100.00;99142.78;5072502;28;20184;-85
2022/05/16 01:43:45;;;;;;;8.38;6.43;;;;;;;17.85;100.00;99144.03;5072427;28;20190;-85
2022/05/16 01:46:14;;;;;;;10.50;6.45;;;;;;;17.89;100.00;99141.88;5074933;28;20305;-85
2022/05/16 01:48:41;;;;;;;11.77;6.50;;;;;;;17.98;100.00;99138.28;5059377;28;20654;-85
2022/05/16 01:51:09;;;;;;;8.52;6.80;;;;;;;17.79;100.00;99141.00;5056264;28;20323;-84
2022/05/16 01:53:37;;;;;;;7.93;7.13;;;;;;;17.83;100.00;99145.19;5056150;28;20367;-85
2022/05/16 01:56:04;;;;;;;7.93;5.95;;;;;;;17.89;100.00;99148.19;5066270;28;20294;-84
2022/05/16 01:58:32;;;;;;;10.98;6.78;;;;;;;17.86;100.00;99151.22;5076225;28;20194;-84
2022/05/16 02:00:59;;;;;;;9.63;6.05;;;;;;;18.05;100.00;99155.72;5076236;28;20271;-84
2022/05/16 02:03:26;;;;;;;9.80;6.57;;;;;;;17.95;100.00;99149.44;5076034;28;20204;-83
2022/05/16 02:05:53;;;;;;;7.28;6.57;;;;;;;17.90;100.00;99143.59;5076322;28;20217;-84
2022/05/16 02:08:20;;;;;;;9.10;6.38;;;;;;;17.53;100.00;99149.78;5076228;28;20290;-84
2022/05/16 02:10:47;;;;;;;10.35;5.97;;;;;;;17.47;100.00;99153.91;5066715;28;20211;-83
2022/05/16 02:13:15;;;;;;;8.95;6.50;;;;;;;17.45;100.00;99152.34;5056544;28;20181;-84
2022/05/16 02:15:45;;;;;;;7.40;6.15;;;;;;;17.36;100.00;99143.19;5068713;28;20195;-84
2022/05/16 02:18:12;;;;;;;7.82;6.97;;;;;;;17.44;100.00;99150.66;5076324;28;20186;-84
2022/05/16 02:20:39;;;;;;;8.68;6.90;;;;;;;17.25;100.00;99140.59;5063586;28;20200;-84
2022/05/16 02:25:53;;;;;;;10.27;7.00;;;;;;;17.30;100.00;99141.06;5055652;28;20610;-83
2022/05/16 02:28:21;;;;;;;8.95;6.68;;;;;;;17.24;100.00;99131.59;5058652;28;20630;-83
2022/05/16 02:30:49;;;;;;;7.65;6.60;;;;;;;17.15;100.00;99151.50;5066824;28;20278;-84
2022/05/16 02:33:18;;;;;;;7.40;6.70;;;;;;;17.20;100.00;99143.75;5055794;28;20193;-85
2022/05/16 02:35:46;;;;;;;12.60;7.10;;;;;;;17.18;100.00;99143.03;5055802;28;20199;-84
2022/05/16 02:38:14;;;;;;;7.05;6.00;;;;;;;17.19;100.00;99139.34;5055723;28;20652;-84
2022/05/16 02:40:41;;;;;;;7.40;6.32;;;;;;;17.19;100.00;99136.59;5055923;28;20540;-84
2022/05/16 02:43:08;;;;;;;10.35;6.90;;;;;;;17.21;100.00;99134.59;5055667;28;20624;-83
2022/05/16 02:45:37;;;;;;;9.25;6.57;;;;;;;17.35;100.00;99146.06;5062454;28;20203;-84
2022/05/16 02:48:06;;;;;;;10.00;7.22;;;;;;;17.48;100.00;99136.59;5059049;28;20200;-84
2022/05/16 02:50:33;;;;;;;6.70;6.10;;;;;;;17.33;100.00;99138.03;5055511;28;20230;-84
2022/05/16 02:52:59;;;;;;;7.70;6.65;;;;;;;17.27;100.00;99133.16;5055725;28;20608;-84
2022/05/16 02:55:26;;;;;;;9.15;6.80;;;;;;;17.25;100.00;99136.06;5054975;28;20188;-85
2022/05/16 02:57:52;;;;;;;8.05;7.25;;;;;;;17.35;100.00;99132.47;5055045;28;20187;-84
2022/05/16 03:00:20;;;;;;;12.93;6.75;;;;;;;17.22;100.00;99124.59;5055547;28;20214;-84
2022/05/16 03:02:47;;;;;;;7.35;6.65;;;;;;;17.11;100.00;99132.88;5070674;28;20186;-83
2022/05/16 03:05:16;;;;;;;11.30;7.20;;;;;;;17.31;100.00;99129.16;5072821;28;20195;-83
2022/05/16 03:07:43;;;;;;;7.93;6.55;;;;;;;17.38;100.00;99134.88;5075771;28;20218;-84
2022/05/16 03:10:15;;;;;;;11.18;7.22;;;;;;;17.52;100.00;99131.72;5067985;28;20279;-84
2022/05/16 03:12:42;;;;;;;9.00;6.80;;;;;;;17.43;100.00;99124.41;5055829;28;20227;-84
2022/05/16 03:15:09;;;;;;;10.50;6.47;;;;;;;17.38;100.00;99129.44;5055777;28;20539;-84
2022/05/16 03:17:36;;;;;;;10.48;7.03;;;;;;;17.29;100.00;99134.72;5056233;28;20205;-84
2022/05/16 03:20:04;;;;;;;13.00;6.93;;;;;;;17.21;100.00;99131.88;5060470;28;20552;-83
2022/05/16 03:22:32;;;;;;;7.50;6.70;;;;;;;17.41;100.00;99145.47;5076326;28;20228;-78
2022/05/16 03:24:58;;;;;;;6.72;6.03;;;;;;;17.27;100.00;99139.47;5074449;28;20550;-78
2022/05/16 03:27:25;;;;;;;9.13;6.93;;;;;;;17.31;100.00;99134.59;5067579;28;20207;-78
2022/05/16 03:29:52;;;;;;;10.15;6.25;;;;;;;17.21;100.00;99129.16;5053863;28;20192;-77
2022/05/16 03:32:19;;;;;;;11.63;7.85;;;;;;;17.09;100.00;99141.16;5053688;28;20203;-78
2022/05/16 03:34:49;;;;;;;11.98;7.45;;;;;;;16.97;100.00;99136.88;5054121;28;20693;-79
2022/05/16 03:37:17;;;;;;;8.70;6.65;;;;;;;16.99;100.00;99149.31;5053795;28;20190;-79
2022/05/16 03:42:29;;;;;;;10.32;8.10;;;;;;;16.83;100.00;99139.00;5053902;28;20524;-78
2022/05/16 03:44:56;;;;;;;13.85;7.65;;;;;;;16.99;100.00;99143.03;5053865;28;20204;-78
2022/05/16 03:47:24;;;;;;;10.68;8.25;;;;;;;16.99;100.00;99148.47;5053893;28;20201;-78
2022/05/16 03:49:51;;;;;;;9.10;6.82;;;;;;;17.11;100.00;99150.06;5053303;28;20185;-78
2022/05/16 03:52:18;;;;;;;8.07;6.93;;;;;;;16.82;100.00;99144.56;5053293;28;20227;-79
2022/05/16 03:54:45;;;;;;;9.85;7.43;;;;;;;16.86;100.00;99136.00;5057639;28;20191;-78
2022/05/16 03:57:12;;;;;;;10.30;9.30;;;;;;;16.79;100.00;99145.72;5071990;28;20632;-78
2022/05/16 03:59:39;;;;;;;10.27;8.68;;;;;;;16.83;100.00;99149.88;5068401;28;20558;-79
2022/05/16 04:02:08;;;;;;;8.98;8.18;;;;;;;16.79;100.00;99148.44;5053420;28;20187;-78
2022/05/16 04:04:35;;;;;;;8.48;7.60;;;;;;;16.83;100.00;99140.88;5053155;28;20226;-78
2022/05/16 04:07:01;;;;;;;7.95;7.18;;;;;;;16.71;100.00;99150.97;5053010;28;20267;-78
2022/05/16 04:09:28;;;;;;;9.50;8.00;;;;;;;16.70;100.00;99149.25;5052341;28;20184;-79
2022/05/16 04:11:56;;;;;;;8.70;7.80;;;;;;;16.62;100.00;99154.50;5052974;28;20194;-78
2022/05/16 04:14:23;;;;;;;10.60;7.38;;;;;;;16.87;100.00;99161.34;5055123;28;20648;-78
2022/05/16 04:16:49;;;;;;;9.48;8.48;;;;;;;16.98;100.00;99154.91;5053272;28;20530;-78
2022/05/16 04:19:16;;;;;;;10.50;7.30;;;;;;;16.93;100.00;99159.91;5053156;28;20217;-79
2022/05/16 04:21:43;;;;;;;9.70;7.50;;;;;;;16.91;100.00;99154.59;5053251;28;20225;-78
2022/05/16 04:24:10;;;;;;;9.13;7.60;;;;;;;16.88;100.00;99166.63;5053192;28;20210;-78
2022/05/16 04:26:51;;;;;;;12.18;8.63;;;;;;;17.09;100.00;99166.53;5053151;28;20211;-78
2022/05/16 04:29:19;;;;;;;8.20;7.40;;;;;;;17.18;100.00;99162.06;5056431;28;20195;-78
2022/05/16 04:31:45;;;;;;;10.95;8.38;;;;;;;17.24;100.00;99163.38;5067566;28;20190;-77
2022/05/16 04:34:12;;;;;;;10.77;7.57;;;;;;;17.35;100.00;99176.84;5063383;28;20193;-78
2022/05/16 04:36:40;;;;;;;8.40;7.57;;;;;;;17.51;100.00;99174.41;5073292;28;20847;-77
2022/05/16 04:39:06;;;;;;;7.93;7.22;;;;;;;17.43;100.00;99181.56;5073084;28;20696;-77
2022/05/16 04:44:18;;;;;;;8.13;7.32;;;;;;;17.34;100.00;99188.72;5072513;28;20197;-78
2022/05/16 04:46:45;;;;;;;8.75;7.85;;;;;;;17.39;100.00;99200.06;5072568;28;20228;-77
2022/05/16 04:49:12;;;;;;;9.05;7.22;;;;;;;17.38;100.00;99200.19;5072629;28;20648;-79
2022/05/16 04:51:38;;;;;;;12.10;7.93;;;;;;;17.16;100.00;99195.88;5072305;28;20229;-78
2022/05/16 04:54:05;;;;;;;9.40;8.43;;;;;;;17.05;100.00;99194.16;5072442;28;20192;-77
2022/05/16 04:56:34;;;;;;;8.40;6.90;;;;;;;16.91;100.00;99206.25;5072390;28;20201;-78
2022/05/16 04:59:01;;;;;;;8.88;7.95;;;;;;;17.01;100.00;99209.03;5072709;28;20185;-78
2022/05/16 05:01:29;;;;;;;8.20;7.47;;;;;;;16.96;100.00;99211.28;5070607;28;20606;-76
2022/05/16 05:03:56;;;;;;;11.88;8.98;;;;;;;16.96;100.00;99211.28;5071818;28;20190;-77
2022/05/16 05:06:22;;;;;;;9.40;8.60;;;;;;;17.00;100.00;99216.31;5071741;28;20211;-77
2022/05/16 05:08:53;;;;;;;9.23;8.35;;;;;;;17.13;100.00;99216.06;5071784;28;20281;-78
2022/05/16 05:16:49;;;;;;;9.32;8.40;;;;;;;17.19;100.00;99220.94;5070450;28;20543;-79
2022/05/16 05:19:16;;;;;;;12.30;8.52;;;;;;;17.34;100.00;99217.81;5071034;28;20289;-77
2022/05/16 05:21:42;;;;;;;13.75;9.15;;;;;;;17.47;100.00;99226.56;5071316;28;20183;-77
2022/05/16 05:24:09;;;;;;;12.80;8.48;;;;;;;17.52;100.00;99232.41;5071447;28;20268;-78
2022/05/16 05:26:36;;;;;;;10.18;9.00;;;;;;;17.66;100.00;99233.84;5070793;28;20194;-78
2022/05/16 05:29:03;;;;;;;13.32;9.57;;;;;;;17.82;100.00;99239.63;5071155;28;20209;-78
2022/05/16 05:31:30;;;;;;;12.98;8.82;;;;;;;17.85;100.00;99242.06;5070665;28;20197;-78
2022/05/16 05:33:59;;;;;;;12.55;8.68;;;;;;;17.80;100.00;99248.94;5071262;28;20182;-78
2022/05/16 05:36:26;;;;;;;10.35;8.55;;;;;;;18.04;100.00;99252.06;5071021;28;20214;-77
2022/05/16 05:38:53;;;;;;;9.57;7.95;;;;;;;18.12;100.00;99256.81;5071131;28;20639;-78
2022/05/16 05:41:22;;;;;;;12.95;8.90;;;;;;;18.34;100.00;99258.34;5071309;28;20192;-78
2022/05/16 05:43:49;;;;;;;11.88;9.55;;;;;;;18.63;100.00;99251.94;5063787;28;20634;-77
2022/05/16 05:46:16;;;;;;;17.83;10.05;;;;;;;18.55;100.00;99250.81;5070794;28;20198;-77
2022/05/16 05:48:43;;;;;;;14.45;9.02;;;;;;;18.79;100.00;99238.56;5070667;28;20215;-79
2022/05/16 05:51:11;;;;;;;12.02;9.10;;;;;;;18.87;100.00;99246.00;5070934;28;20227;-77
2022/05/16 05:53:41;;;;;;;14.85;10.15;;;;;;;19.09;100.00;99245.59;5071797;28;20528;-77
2022/05/16 05:56:08;;;;;;;11.35;9.02;;;;;;;19.31;100.00;99247.03;5070569;28;20197;-77
2022/05/16 05:58:36;;;;;;;13.60;9.27;;;;;;;19.54;100.00;99246.59;5070981;28;20200;-77
2022/05/16 06:01:04;;;;;;;15.60;10.37;;;;;;;19.71;100.00;99248.47;5070892;28;21003;-77
2022/05/16 06:03:30;;;;;;;11.98;8.15;;;;;;;19.78;100.00;99255.03;5054634;28;20445;-78
2022/05/16 06:05:57;;;;;;;11.57;8.73;;;;;;;20.08;100.00;99260.25;5069926;28;20193;-78
2022/05/16 06:08:25;;;;;;;9.83;6.67;;;;;;;20.12;100.00;99254.28;5070909;28;20470;-79
2022/05/16 06:10:52;;;;;;;12.87;8.83;;;;;;;20.28;100.00;99261.75;5070645;28;20435;-78
2022/05/16 06:13:19;;;;;;;11.00;8.73;;;;;;;20.57;100.00;99258.75;5071456;28;20437;-79
2022/05/16 06:15:46;;;;;;;8.63;7.73;;;;;;;21.00;95.56;99259.66;5071617;28;20976;-78
2022/05/16 06:18:13;;;;;;;9.07;7.43;;;;;;;20.96;90.10;99266.50;5071814;28;20466;-79
2022/05/16 06:20:40;;;;;;;11.80;6.40;;;;;;;20.73;86.20;99274.41;5071475;28;20439;-77
2022/05/16 06:23:06;;;;;;;12.43;7.10;;;;;;;21.05;88.18;99275.59;5071015;28;20783;-76
2022/05/16 06:25:36;;;;;;;12.27;7.53;;;;;;;21.34;85.39;99288.88;5070685;28;20419;-76
2022/05/16 06:28:06;;;;;;;9.60;6.00;;;;;;;21.54;82.47;99280.41;5070650;28;21049;-76
2022/05/16 06:30:35;;;;;;;12.53;6.27;;;;;;;21.48;80.77;99286.56;5071128;28;20933;-74
2022/05/16 06:33:01;;;;;;;12.20;6.30;;;;;;;21.65;77.70;99296.53;5073186;28;20564;-76
2022/05/16 06:35:28;;;;;;;10.20;6.03;;;;;;;21.54;73.84;99292.22;5074484;28;20496;-77
2022/05/16 06:37:55;;;;;;;17.33;6.20;;;;;;;21.43;75.42;99296.13;5074609;28;20772;-78
2022/05/16 06:40:22;;;;;;;19.80;6.27;;;;;;;21.62;72.24;99296.88;5074344;28;20800;-75
2022/05/16 06:42:50;;;;;;;12.23;5.60;;;;;;;21.81;71.78;99298.47;5074603;28;20909;-76
2022/05/16 06:45:17;;;;;;;23.93;6.30;;;;;;;21.64;71.62;99308.53;5074270;28;20781;-76
2022/05/16 06:47:44;;;;;;;6.80;4.60;;;;;;;21.94;70.81;99309.78;5074650;28;21035;-77
2022/05/16 06:50:11;;;;;;;12.40;5.87;;;;;;;22.10;69.68;99311.69;5074317;28;20886;-77
2022/05/16 06:52:39;;;;;;;5.03;4.53;;;;;;;22.37;67.66;99309.66;5073754;28;20466;-78
2022/05/16 06:55:06;;;;;;;8.93;5.17;;;;;;;22.21;66.76;99307.75;5073931;28;20416;-77
2022/05/16 06:57:33;;;;;;;8.40;4.93;;;;;;;22.34;66.74;99315.47;5073994;28;20532;-77
2022/05/16 07:00:02;;;;;;;6.57;4.83;;;;;;;22.18;67.15;99321.78;5073446;28;20442;-76
2022/05/16 07:02:28;;;;;;;12.17;5.07;;;;;;;22.55;65.48;99335.03;5074081;28;20470;-77
2022/05/16 07:04:55;;;;;;;6.30;5.03;;;;;;;22.22;66.82;99336.91;5074231;28;20518;-77
2022/05/16 07:07:21;;;;;;;9.67;5.13;;;;;;;22.08;67.87;99335.66;5074121;28;20491;-77
2022/05/16 07:09:48;;;;;;;6.97;4.73;;;;;;;22.53;66.48;99337.09;5074330;28;20433;-77
2022/05/16 07:12:15;;;;;;;9.33;5.00;;;;;;;22.72;65.98;99343.22;5073998;28;20415;-76
2022/05/16 07:14:42;;;;;;;6.07;5.10;;;;;;;22.76;66.08;99347.34;5073789;28;20439;-77
2022/05/16 07:17:10;;;;;;;6.80;4.83;;;;;;;22.39;66.76;99355.09;5073903;28;20429;-76
2022/05/16 07:19:36;;;;;;;6.83;4.93;;;;;;;22.39;68.11;99348.75;5073432;28;20451;-77
2022/05/16 07:22:04;;;;;;;9.30;4.53;;;;;;;22.60;66.95;99351.81;5073140;28;20434;-77
2022/05/16 07:24:31;;;;;;;6.03;4.30;;;;;;;22.53;67.87;99352.69;5073580;28;20417;-76
2022/05/16 07:29:42;;;;;;;6.60;5.13;;;;;;;23.14;66.34;99355.88;5073547;28;20398;-77
2022/05/16 07:32:12;;;;;;;8.80;4.83;;;;;;;23.29;65.22;99349.50;5073539;28;20446;-76
2022/05/16 07:34:39;;;;;;;7.07;5.40;;;;;;;22.93;67.06;99357.28;5073373;28;20526;-77
2022/05/16 07:37:06;;;;;;;8.87;5.10;;;;;;;22.86;67.40;99351.63;5073285;28;20453;-77
2022/05/16 07:39:35;;;;;;;10.63;5.40;;;;;;;22.88;68.12;99367.91;5073553;28;20779;-77
2022/05/16 07:42:02;;;;;;;6.83;4.93;;;;;;;22.67;70.08;99360.22;5073252;28;20442;-76
2022/05/16 07:44:28;;;;;;;9.13;4.70;;;;;;;22.58;70.18;99372.22;5071822;28;20451;-77
2022/05/16 07:46:55;;;;;;;11.13;5.50;;;;;;;22.64;70.84;99366.06;5073037;28;20519;-77
2022/05/16 07:49:23;;;;;;;6.47;5.40;;;;;;;22.89;69.45;99366.88;5072694;28;20488;-77
2022/05/16 07:51:49;;;;;;;7.77;5.70;;;;;;;23.12;69.45;99364.28;5072902;28;20826;-77
2022/05/16 07:54:16;;;;;;;7.83;5.00;;;;;;;23.28;67.03;99372.47;5073415;28;20431;-77
2022/05/16 07:56:42;;;;;;;6.83;5.83;;;;;;;23.55;66.97;99372.22;5073162;28;20449;-76
2022/05/16 07:59:09;;;;;;;8.13;5.83;;;;;;;23.49;67.75;99362.78;5073115;28;20415;-76
2022/05/16 08:01:36;;;;;;;6.43;4.80;;;;;;;23.70;66.20;99367.69;5073179;28;20442;-76
2022/05/16 08:04:04;;;;;;;9.13;5.13;;;;;;;23.48;67.20;99381.16;5072916;28;20434;-76
2022/05/16 08:06:33;;;;;;;4.43;4.03;;;;;;;23.34;67.49;99378.28;5072530;28;20460;-77
2022/05/16 08:11:43;;;;;;;8.93;4.27;;;;;;;23.65;65.86;99383.84;5072617;28;20458;-75
2022/05/16 08:14:11;;;;;;;4.90;4.40;;;;;;;23.34;67.03;99383.78;5072444;28;20427;-76
2022/05/16 08:16:38;;;;;;;7.97;5.70;;;;;;;23.68;66.74;99395.34;5072407;28;20470;-76
2022/05/16 08:19:05;;;;;;;9.77;5.40;;;;;;;23.88;65.60;99392.22;5072662;28;20439;-77
2022/05/16 08:21:33;;;;;;;10.93;4.63;;;;;;;23.76;66.93;99402.72;5072306;28;20438;-76
2022/05/16 08:24:01;;;;;;;10.17;5.90;;;;;;;24.37;63.45;99407.53;5072343;28;20446;-76
2022/05/16 08:26:28;;;;;;;7.50;5.30;;;;;;;24.18;63.44;99406.97;5072311;28;20518;-76
2022/05/16 08:28:54;;;;;;;6.70;4.53;;;;;;;23.85;65.44;99423.63;5072465;28;21010;-76
2022/05/16 08:31:21;;;;;;;7.83;4.83;;;;;;;23.81;66.13;99422.31;5072101;28;20434;-77
2022/05/16 08:33:48;;;;;;;7.00;4.20;;;;;;;23.91;65.77;99420.19;5072358;28;20893;-77
2022/05/16 08:41:53;;;;;;;6.20;4.40;;;;;;;24.00;64.02;99434.75;5072037;28;20430;-76
2022/05/16 08:44:27;;;;;;;4.23;3.50;;;;;;;24.23;63.78;99437.53;5071834;28;20427;-76
2022/05/16 08:47:10;;;;;;;5.77;3.67;;;;;;;24.23;62.75;99439.44;5072523;28;20821;-77
2022/05/16 08:49:42;;;;;;;5.63;3.50;;;;;;;24.23;62.62;99440.28;5072182;28;20816;-76
2022/05/16 08:52:16;;;;;;;5.80;3.67;;;;;;;23.80;64.86;99453.56;5071994;28;20482;-77
2022/05/16 08:54:50;;;;;;;7.47;3.27;;;;;;;23.61;66.91;99460.31;5071669;28;20426;-75
2022/05/16 08:57:26;;;;;;;5.70;3.57;;;;;;;23.97;64.58;99465.38;5071929;28;20758;-76
2022/05/16 08:59:59;;;;;;;6.83;4.73;;;;;;;24.30;63.76;99460.53;5071896;28;20445;-77
2022/05/16 09:02:27;;;;;;;5.77;3.87;;;;;;;24.08;64.28;99472.34;5071638;28;20442;-76
2022/05/16 09:05:03;;;;;;;9.73;3.90;;;;;;;24.12;63.55;99481.94;5071567;28;20462;-75
2022/05/16 09:07:35;;;;;;;7.83;3.67;;;;;;;23.75;64.66;99475.25;5071360;28;20496;-76
2022/05/16 09:10:08;;;;;;;6.93;3.50;;;;;;;23.93;64.52;99478.59;5071444;28;20901;-76
2022/05/16 09:12:44;;;;;;;7.50;3.97;;;;;;;24.35;62.77;99477.38;5071899;28;20420;-77
2022/05/16 09:15:20;;;;;;;6.93;3.30;;;;;;;24.64;60.82;99470.31;5071522;28;20440;-76
2022/05/16 09:18:17;;;;;;;7.23;3.30;;;;;;;24.55;60.83;99482.41;5071658;28;20426;-77
2022/05/16 09:20:50;;;;;;;12.23;3.60;;;;;;;24.29;62.36;99489.09;5071169;28;20426;-76
2022/05/16 09:23:31;;;;;;;8.63;3.30;;;;;;;24.39;61.35;99483.34;5071757;28;20453;-76
2022/05/16 09:26:08;;;;;;;9.03;3.63;;;;;;;24.45;61.54;99485.38;5071492;28;20419;-76
2022/05/16 09:28:42;;;;;;;5.97;3.10;;;;;;;24.65;61.40;99498.69;5070963;28;20477;-77
2022/05/16 09:31:18;;;;;;;5.53;3.20;;;;;;;24.47;59.80;99493.47;5070867;28;20449;-76
2022/05/16 09:33:47;;;;;;;7.60;3.67;;;;;;;24.35;59.92;99502.13;5068553;28;20450;-76
2022/05/16 09:36:19;;;;;;;5.70;3.17;;;;;;;24.43;58.95;99511.38;5070653;28;20439;-77
2022/05/16 09:38:46;;;;;;;5.87;2.87;;;;;;;24.34;59.77;99505.91;5070701;28;20446;-77
2022/05/16 09:41:21;;;;;;;8.30;3.17;;;;;;;24.51;59.50;99509.47;5070810;28;20795;-75
2022/05/16 09:43:58;;;;;;;7.20;4.00;;;;;;;24.76;58.36;99501.91;5071089;28;20431;-76
2022/05/16 09:46:32;;;;;;;4.70;3.27;;;;;;;25.18;57.28;99508.81;5071621;28;20460;-77
2022/05/16 09:49:11;;;;;;;9.53;3.43;;;;;;;25.03;57.64;99505.09;5070985;28;21059;-77
2022/05/16 09:51:47;;;;;;;7.67;3.13;;;;;;;24.79;59.13;99511.69;5070482;28;20506;-77
2022/05/16 09:54:19;;;;;;;6.70;3.07;;;;;;;25.05;58.58;99515.94;5070813;28;20438;-77
2022/05/16 09:56:58;;;;;;;3.83;2.60;;;;;;;24.98;58.42;99521.34;5070696;28;20439;-77
2022/05/16 09:59:37;;;;;;;8.00;3.20;;;;;;;24.44;57.80;99521.31;5070921;28;20419;-77
2022/05/16 10:02:21;;;;;;;4.60;3.10;;;;;;;23.83;60.19;99521.91;5070475;28;20427;-77
2022/05/16 10:04:52;;;;;;;7.30;2.87;;;;;;;23.65;60.90;99529.50;5070659;28;20427;-76
2022/05/16 10:07:24;;;;;;;8.70;2.87;;;;;;;23.61;61.18;99534.50;5073196;28;20893;-76
2022/05/16 10:09:52;;;;;;;4.00;2.80;;;;;;;23.67;62.48;99539.28;5074771;28;20474;-78
2022/05/16 10:12:23;;;;;;;4.53;3.60;;;;;;;23.73;62.96;99551.50;5080403;28;20503;-78
2022/05/16 10:14:50;;;;;;;6.27;2.17;;;;;;;23.36;64.85;99535.56;5094770;28;20776;-77
2022/05/16 10:17:22;;;;;;;4.20;2.50;;;;;;;23.32;66.37;99548.81;5094502;28;20444;-77
2022/05/16 10:19:56;;;;;;;5.17;1.90;;;;;;;22.97;68.50;99553.56;5094941;28;20413;-77
2022/05/16 10:22:25;;;;;;;5.53;2.20;;;;;;;22.88;69.46;99560.06;5080473;28;20521;-77
2022/05/16 10:24:55;;;;;;;6.53;2.70;;;;;;;22.74;70.98;99558.00;5074051;28;20807;-77
2022/05/16 10:27:25;;;;;;;2.60;1.90;;;;;;;22.62;71.62;99572.03;5074241;28;20450;-77
2022/05/16 10:29:55;;;;;;;5.40;2.53;;;;;;;22.39;73.35;99563.56;5073872;28;20807;-77
2022/05/16 10:35:18;;;;;;;6.57;2.20;;;;;;;22.29;75.00;99565.56;5065933;28;20433;-76
2022/05/16 10:37:47;;;;;;;6.80;5.17;;;;;;;22.58;73.78;99569.78;5074392;28;20771;-77
2022/05/16 10:40:23;;;;;;;7.10;2.43;;;;;;;22.54;73.55;99580.22;5074075;28;20439;-77
2022/05/16 10:43:03;;;;;;;3.47;1.70;;;;;;;22.45;75.27;99575.75;5071170;28;20489;-76
2022/05/16 10:45:32;;;;;;;5.40;3.40;;;;;;;22.46;75.71;99570.09;5054248;28;20451;-75
2022/05/16 10:48:05;;;;;;;2.57;2.27;;;;;;;22.62;76.07;99566.53;5055568;28;20423;-76
2022/05/16 10:50:39;;;;;;;3.97;2.60;;;;;;;22.18;78.24;99566.72;5054060;28;20445;-78
2022/05/16 10:53:11;;;;;;;7.13;3.10;;;;;;;22.13;80.28;99571.81;5053781;28;20451;-77
2022/05/16 10:55:42;;;;;;;10.37;2.60;;;;;;;21.74;86.48;99574.19;5053736;28;20409;-78
2022/05/16 10:58:25;;;;;;;9.00;2.70;;;;;;;21.49;90.72;99582.22;5055449;28;20454;-76
2022/05/16 11:01:02;;;;;;;5.17;2.70;;;;;;;21.49;94.37;99586.84;5074168;28;20429;-76
2022/05/16 11:04:03;;;;;;;5.50;2.57;;;;;;;21.49;96.81;99584.09;5073437;28;20439;-76
2022/05/16 11:06:43;;;;;;;9.50;3.43;;;;;;;21.24;100.00;99600.31;5074158;28;20460;-77
2022/05/16 11:09:17;;;;;;;3.80;2.53;;;;;;;21.14;100.00;99602.25;5074036;28;20502;-76
2022/05/16 11:11:51;;;;;;;5.33;4.03;;;;;;;21.10;100.00;99606.31;5073497;28;20992;-77
2022/05/16 11:14:24;;;;;;;3.93;3.30;;;;;;;21.39;100.00;99609.69;5073074;28;20430;-77
2022/05/16 11:16:56;;;;;;;11.30;3.73;;;;;;;21.64;100.00;99605.28;5063292;28;20527;-77
2022/05/16 11:19:32;;;;;;;9.30;3.10;;;;;;;21.43;100.00;99618.47;5073288;28;20518;-76
2022/05/16 11:22:06;;;;;;;6.97;2.77;;;;;;;21.10;100.00;99611.78;5073674;28;20430;-76
2022/05/16 11:24:42;;;;;;;5.50;3.00;;;;;;;21.43;100.00;99615.72;5073437;28;20426;-77
2022/05/16 11:27:18;;;;;;;5.20;3.00;;;;;;;21.11;100.00;99619.00;5073622;28;20889;-77
2022/05/16 11:29:58;;;;;;;5.37;2.80;;;;;;;21.44;100.00;99615.56;5073075;28;20466;-77
2022/05/16 11:32:43;;;;;;;3.80;2.83;;;;;;;21.27;100.00;99621.88;5073445;28;20536;-75
2022/05/16 11:35:17;;;;;;;6.00;3.90;;;;;;;21.91;100.00;99614.38;5073338;28;20519;-78
2022/05/16 11:37:58;;;;;;;19.23;10.57;;;;;;;22.27;100.00;99619.72;5072925;28;20434;-77
2022/05/16 11:40:32;;;;;;;5.40;2.90;;;;;;;22.43;100.00;99619.81;5072968;28;20425;-76
2022/05/16 11:43:08;;;;;;;6.00;2.97;;;;;;;22.35;100.00;99622.50;5071930;28;20430;-77
2022/05/16 11:46:08;;;;;;;5.50;3.47;;;;;;;22.52;100.00;99626.16;5072759;28;20489;-77
2022/05/16 11:48:45;;;;;;;8.67;4.60;;;;;;;22.53;100.00;99627.06;5072422;28;20500;-77
2022/05/16 11:51:21;;;;;;;7.20;4.00;;;;;;;23.04;100.00;99625.16;5072858;28;20478;-77
2022/05/16 11:53:50;;;;;;;7.03;4.40;;;;;;;22.94;100.00;99624.44;5072790;28;20442;-76
2022/05/16 12:02:13;;;;;;;8.00;4.37;;;;;;;22.43;100.00;99618.94;5052659;28;20457;-76
2022/05/16 12:04:43;;;;;;;10.30;4.77;;;;;;;22.21;100.00;99626.75;5062408;28;21496;-77
2022/05/16 12:07:18;;;;;;;8.70;4.63;;;;;;;22.45;100.00;99630.59;5071552;28;20799;-77
2022/05/16 12:09:53;;;;;;;5.60;3.73;;;;;;;22.64;100.00;99624.88;5071856;28;20503;-76
2022/05/16 12:12:35;;;;;;;16.77;5.70;;;;;;;22.48;100.00;99625.66;5072459;28;20437;-76
2022/05/16 12:15:30;;;;;;;15.83;6.03;;;;;;;23.04;98.19;99634.28;5071981;28;20431;-77